createdAt,value
2017-10-25T00:00:56.845Z,13.65
2017-10-25T00:01:57.277Z,13.74
2017-10-25T00:02:57.711Z,13.65
2017-10-25T00:03:58.137Z,13.65
2017-10-25T00:04:58.565Z,13.68
2017-10-25T00:05:58.993Z,13.74
2017-10-25T00:06:59.426Z,13.62
2017-10-25T00:07:59.856Z,13.70
2017-10-25T00:09:00.283Z,13.67
2017-10-25T00:10:00.715Z,13.62
2017-10-25T00:11:01.140Z,13.60
2017-10-25T00:12:01.581Z,13.63
2017-10-25T00:13:02.005Z,13.57
2017-10-25T00:14:02.430Z,13.62
2017-10-25T00:15:02.858Z,13.68
2017-10-25T00:16:03.293Z,13.68
2017-10-25T00:17:03.726Z,13.53
2017-10-25T00:18:04.164Z,13.54
2017-10-25T00:19:04.575Z,13.59
2017-10-25T00:20:05.011Z,13.60
2017-10-25T00:21:05.471Z,13.63
2017-10-25T00:22:05.874Z,13.54
2017-10-25T00:23:06.299Z,13.56
2017-10-25T00:24:06.722Z,13.56
2017-10-25T00:25:07.159Z,13.57
2017-10-25T00:26:07.583Z,13.65
2017-10-25T00:27:08.015Z,13.59
2017-10-25T00:28:08.440Z,13.63
2017-10-25T00:29:08.870Z,13.56
2017-10-25T00:30:09.306Z,13.59
2017-10-25T00:31:09.734Z,13.57
2017-10-25T00:32:10.161Z,13.57
2017-10-25T00:33:10.591Z,13.59
2017-10-25T00:34:11.034Z,13.62
2017-10-25T00:35:11.450Z,13.53
2017-10-25T00:36:11.878Z,13.52
2017-10-25T00:37:12.306Z,13.62
2017-10-25T00:38:12.739Z,13.62
2017-10-25T00:39:13.166Z,13.67
2017-10-25T00:40:13.594Z,13.59
2017-10-25T00:41:14.025Z,13.56
2017-10-25T00:42:14.452Z,13.67
2017-10-25T00:43:14.897Z,13.57
2017-10-25T00:44:15.308Z,13.60
2017-10-25T00:45:15.737Z,13.57
2017-10-25T00:46:16.173Z,13.67
2017-10-25T00:47:16.600Z,13.63
2017-10-25T00:48:17.028Z,13.65
2017-10-25T00:49:17.458Z,13.62
2017-10-25T00:50:17.886Z,13.63
2017-10-25T00:51:18.313Z,13.68
2017-10-25T00:52:18.745Z,13.67
2017-10-25T00:53:19.171Z,13.75
2017-10-25T00:54:19.605Z,13.67
2017-10-25T00:55:20.032Z,13.68
2017-10-25T00:56:20.461Z,13.74
2017-10-25T00:57:20.889Z,13.77
2017-10-25T00:58:21.331Z,13.68
2017-10-25T00:59:21.747Z,13.65
2017-10-25T01:00:22.178Z,13.65
2017-10-25T01:01:22.608Z,13.68
2017-10-25T01:02:23.044Z,13.71
2017-10-25T01:03:23.465Z,13.75
2017-10-25T01:04:23.893Z,13.72
2017-10-25T01:05:24.324Z,13.85
2017-10-25T01:06:24.760Z,13.70
2017-10-25T01:07:25.193Z,13.79
2017-10-25T01:08:25.613Z,13.83
2017-10-25T01:09:26.042Z,13.86
2017-10-25T01:10:26.471Z,13.78
2017-10-25T01:11:26.902Z,13.77
2017-10-25T01:12:27.335Z,13.83
2017-10-25T01:13:27.762Z,13.90
2017-10-25T01:14:28.197Z,13.86
2017-10-25T01:15:28.623Z,13.83
2017-10-25T01:16:29.071Z,13.78
2017-10-25T01:17:29.483Z,13.81
2017-10-25T01:18:29.912Z,13.90
2017-10-25T01:19:30.339Z,13.92
2017-10-25T01:20:30.771Z,13.95
2017-10-25T01:21:31.199Z,13.92
2017-10-25T01:22:31.628Z,13.89
2017-10-25T01:23:32.062Z,13.95
2017-10-25T01:24:32.503Z,13.89
2017-10-25T01:25:32.920Z,13.95
2017-10-25T01:26:33.347Z,13.87
2017-10-25T01:27:33.785Z,13.95
2017-10-25T01:28:34.207Z,13.96
2017-10-25T01:29:34.636Z,13.93
2017-10-25T01:30:35.070Z,13.90
2017-10-25T01:31:35.494Z,13.95
2017-10-25T01:32:35.938Z,13.89
2017-10-25T01:33:36.358Z,13.90
2017-10-25T01:34:36.789Z,13.90
2017-10-25T01:35:37.217Z,13.87
2017-10-25T01:36:37.648Z,13.99
2017-10-25T01:37:38.077Z,13.93
2017-10-25T01:38:38.505Z,14.00
2017-10-25T01:39:38.937Z,13.93
2017-10-25T01:40:39.370Z,13.89
2017-10-25T01:41:39.798Z,14.00
2017-10-25T01:42:40.231Z,13.96
2017-10-25T01:43:40.674Z,13.95
2017-10-25T01:44:41.095Z,13.90
2017-10-25T01:45:41.516Z,13.93
2017-10-25T01:46:41.949Z,13.93
2017-10-25T01:47:42.393Z,13.92
2017-10-25T01:48:42.803Z,14.00
2017-10-25T01:49:43.233Z,14.15
2017-10-25T01:50:43.666Z,14.08
2017-10-25T01:51:44.099Z,14.05
2017-10-25T01:52:44.525Z,14.07
2017-10-25T01:53:44.961Z,14.07
2017-10-25T01:54:45.386Z,13.97
2017-10-25T01:55:45.840Z,14.04
2017-10-25T01:56:46.244Z,14.05
2017-10-25T01:57:46.677Z,14.04
2017-10-25T01:58:47.102Z,14.04
2017-10-25T01:59:47.531Z,14.07
2017-10-25T02:00:47.967Z,14.08
2017-10-25T02:01:48.393Z,14.07
2017-10-25T02:02:48.825Z,14.14
2017-10-25T02:03:49.253Z,14.10
2017-10-25T02:04:49.681Z,14.12
2017-10-25T02:05:50.112Z,14.20
2017-10-25T02:06:50.542Z,14.08
2017-10-25T02:07:50.979Z,14.07
2017-10-25T02:08:51.406Z,14.08
2017-10-25T02:09:51.832Z,14.05
2017-10-25T02:10:52.265Z,14.14
2017-10-25T02:11:52.691Z,14.18
2017-10-25T02:12:53.120Z,14.23
2017-10-25T02:13:53.552Z,14.10
2017-10-25T02:14:53.986Z,14.07
2017-10-25T02:15:54.413Z,14.07
2017-10-25T02:16:54.858Z,14.22
2017-10-25T02:17:55.274Z,14.23
2017-10-25T02:18:55.707Z,14.23
2017-10-25T02:19:56.131Z,14.17
2017-10-25T02:20:56.566Z,14.23
2017-10-25T02:21:56.993Z,14.14
2017-10-25T02:22:57.428Z,14.14
2017-10-25T02:23:57.853Z,14.04
2017-10-25T02:24:58.283Z,14.04
2017-10-25T02:25:58.713Z,14.08
2017-10-25T02:26:59.146Z,14.07
2017-10-25T02:27:59.576Z,14.10
2017-10-25T02:29:00.004Z,14.15
2017-10-25T02:30:00.435Z,14.17
2017-10-25T02:31:00.866Z,14.15
2017-10-25T02:32:01.298Z,14.17
2017-10-25T02:33:01.726Z,14.18
2017-10-25T02:34:02.154Z,14.23
2017-10-25T02:35:02.583Z,14.26
2017-10-25T02:36:03.016Z,14.26
2017-10-25T02:37:03.451Z,14.15
2017-10-25T02:38:03.880Z,14.28
2017-10-25T02:39:04.306Z,14.30
2017-10-25T02:40:04.751Z,14.30
2017-10-25T02:41:05.166Z,14.30
2017-10-25T02:42:05.601Z,14.17
2017-10-25T02:43:06.024Z,14.17
2017-10-25T02:44:06.459Z,14.05
2017-10-25T02:45:06.892Z,14.20
2017-10-25T02:46:07.317Z,14.20
2017-10-25T02:47:07.741Z,14.32
2017-10-25T02:48:08.177Z,14.26
2017-10-25T02:49:08.602Z,14.30
2017-10-25T02:50:09.033Z,14.26
2017-10-25T02:51:09.465Z,14.15
2017-10-25T02:52:09.893Z,14.20
2017-10-25T02:53:10.323Z,14.25
2017-10-25T02:54:10.753Z,14.26
2017-10-25T02:55:11.186Z,14.30
2017-10-25T02:56:11.613Z,14.26
2017-10-25T02:57:12.045Z,14.25
2017-10-25T02:58:12.472Z,14.22
2017-10-25T02:59:12.906Z,14.23
2017-10-25T03:00:13.334Z,14.30
2017-10-25T03:01:13.764Z,14.30
2017-10-25T03:02:14.192Z,14.30
2017-10-25T03:03:14.629Z,14.25
2017-10-25T03:04:15.051Z,14.18
2017-10-25T03:05:15.482Z,14.20
2017-10-25T03:06:15.917Z,14.07
2017-10-25T03:07:16.351Z,14.07
2017-10-25T03:08:16.774Z,14.15
2017-10-25T03:09:17.203Z,14.22
2017-10-25T03:10:17.633Z,14.20
2017-10-25T03:11:18.061Z,14.29
2017-10-25T03:12:18.489Z,14.25
2017-10-25T03:13:18.923Z,14.28
2017-10-25T03:14:19.362Z,14.22
2017-10-25T03:15:19.783Z,14.26
2017-10-25T03:16:20.210Z,14.25
2017-10-25T03:17:20.669Z,14.25
2017-10-25T03:18:21.073Z,14.30
2017-10-25T03:19:21.509Z,14.28
2017-10-25T03:20:21.936Z,14.23
2017-10-25T03:21:22.360Z,14.26
2017-10-25T03:22:22.798Z,14.26
2017-10-25T03:23:23.223Z,14.17
2017-10-25T03:24:23.652Z,14.26
2017-10-25T03:25:24.083Z,14.20
2017-10-25T03:26:24.523Z,14.20
2017-10-25T03:27:24.966Z,14.26
2017-10-25T03:28:25.379Z,14.25
2017-10-25T03:29:25.801Z,14.28
2017-10-25T03:30:26.233Z,14.32
2017-10-25T03:31:26.662Z,14.29
2017-10-25T03:32:27.183Z,14.28
2017-10-25T03:33:27.529Z,14.28
2017-10-25T03:34:27.956Z,14.28
2017-10-25T03:35:28.388Z,14.29
2017-10-25T03:36:28.823Z,14.33
2017-10-25T03:37:29.248Z,14.33
2017-10-25T03:38:29.676Z,14.37
2017-10-25T03:39:30.107Z,14.32
2017-10-25T03:40:30.537Z,14.33
2017-10-25T03:41:30.965Z,14.33
2017-10-25T03:42:31.401Z,14.33
2017-10-25T03:43:31.825Z,14.33
2017-10-25T03:44:32.259Z,14.36
2017-10-25T03:45:32.691Z,14.25
2017-10-25T03:46:33.118Z,14.33
2017-10-25T03:47:33.550Z,14.36
2017-10-25T03:48:33.978Z,14.29
2017-10-25T03:49:34.413Z,14.29
2017-10-25T03:50:34.847Z,14.36
2017-10-25T03:51:35.267Z,14.35
2017-10-25T03:52:35.705Z,14.35
2017-10-25T03:53:36.129Z,14.26
2017-10-25T03:54:36.573Z,14.33
2017-10-25T03:55:36.990Z,14.22
2017-10-25T03:56:37.419Z,14.23
2017-10-25T03:57:37.851Z,14.26
2017-10-25T03:58:38.281Z,14.30
2017-10-25T03:59:38.706Z,14.36
2017-10-25T04:00:39.133Z,14.37
2017-10-25T04:01:39.584Z,14.35
2017-10-25T04:02:40.000Z,14.40
2017-10-25T04:03:40.432Z,14.41
2017-10-25T04:04:40.863Z,14.33
2017-10-25T04:05:41.290Z,14.40
2017-10-25T04:06:41.723Z,14.35
2017-10-25T04:07:42.155Z,14.36
2017-10-25T04:08:42.606Z,14.37
2017-10-25T04:09:43.017Z,14.40
2017-10-25T04:10:43.446Z,14.30
2017-10-25T04:11:43.875Z,14.33
2017-10-25T04:12:44.306Z,14.43
2017-10-25T04:13:44.732Z,14.41
2017-10-25T04:16:18.305Z,14.69
2017-10-25T04:17:18.698Z,14.53
2017-10-25T04:19:14.242Z,14.53
2017-10-25T04:21:49.201Z,14.58
2017-10-25T04:24:29.840Z,14.45
2017-10-25T04:25:30.276Z,14.62
2017-10-25T04:27:24.852Z,14.44
2017-10-25T04:28:25.267Z,14.51
2017-10-25T04:30:19.823Z,14.58
2017-10-25T04:31:20.253Z,14.62
2017-10-25T04:33:14.833Z,14.45
2017-10-25T04:34:15.254Z,14.51
2017-10-25T04:35:15.683Z,14.55
2017-10-25T04:36:16.117Z,14.53
2017-10-25T04:38:52.009Z,14.58
2017-10-25T04:39:52.416Z,14.60
2017-10-25T04:41:46.977Z,14.53
2017-10-25T04:42:47.405Z,14.59
2017-10-25T04:44:42.984Z,14.63
2017-10-25T04:45:43.396Z,14.59
2017-10-25T04:47:42.909Z,14.54
2017-10-25T04:48:43.282Z,14.55
2017-10-25T04:49:43.710Z,14.58
2017-10-25T04:50:44.145Z,14.55
2017-10-25T04:51:44.583Z,14.50
2017-10-25T04:52:45.001Z,14.50
2017-10-25T04:53:45.432Z,14.54
2017-10-25T04:54:45.868Z,14.48
2017-10-25T04:55:46.295Z,14.48
2017-10-25T04:56:46.730Z,14.51
2017-10-25T04:57:47.159Z,14.54
2017-10-25T04:58:47.588Z,14.58
2017-10-25T04:59:48.015Z,14.51
2017-10-25T05:00:48.450Z,14.58
2017-10-25T05:01:48.883Z,14.50
2017-10-25T05:02:49.313Z,14.65
2017-10-25T05:03:49.738Z,14.50
2017-10-25T05:04:50.169Z,14.45
2017-10-25T05:05:50.600Z,14.59
2017-10-25T05:06:51.034Z,14.62
2017-10-25T05:07:51.458Z,14.63
2017-10-25T05:08:51.903Z,14.63
2017-10-25T05:09:52.322Z,14.48
2017-10-25T05:10:52.752Z,14.53
2017-10-25T05:11:53.188Z,14.62
2017-10-25T05:12:53.618Z,14.47
2017-10-25T05:13:54.045Z,14.51
2017-10-25T05:14:54.477Z,14.50
2017-10-25T05:15:54.905Z,14.51
2017-10-25T05:16:55.349Z,14.60
2017-10-25T05:17:55.767Z,14.47
2017-10-25T05:18:56.210Z,14.48
2017-10-25T05:19:56.628Z,14.58
2017-10-25T05:20:57.063Z,14.54
2017-10-25T05:21:57.490Z,14.55
2017-10-25T05:22:57.925Z,14.60
2017-10-25T05:23:58.351Z,14.55
2017-10-25T05:24:58.783Z,14.50
2017-10-25T05:25:59.216Z,14.55
2017-10-25T05:26:59.649Z,14.63
2017-10-25T05:28:00.079Z,14.62
2017-10-25T05:29:00.542Z,14.63
2017-10-25T05:30:00.942Z,14.65
2017-10-25T05:31:01.371Z,14.66
2017-10-25T05:32:02.739Z,14.72
2017-10-25T05:33:02.235Z,14.72
2017-10-25T05:34:02.663Z,14.70
2017-10-25T05:35:03.092Z,14.55
2017-10-25T05:36:03.530Z,14.66
2017-10-25T05:37:03.954Z,14.60
2017-10-25T05:38:04.384Z,14.66
2017-10-25T05:39:04.816Z,14.68
2017-10-25T05:40:05.251Z,14.65
2017-10-25T05:41:05.680Z,14.62
2017-10-25T05:42:06.110Z,14.68
2017-10-25T05:43:06.540Z,14.77
2017-10-25T05:44:06.972Z,14.65
2017-10-25T05:45:07.405Z,14.58
2017-10-25T05:46:07.834Z,14.62
2017-10-25T05:47:08.268Z,14.63
2017-10-25T05:48:08.692Z,14.62
2017-10-25T05:49:09.130Z,14.60
2017-10-25T05:50:09.556Z,14.63
2017-10-25T05:51:09.988Z,14.70
2017-10-25T05:52:10.426Z,14.62
2017-10-25T05:53:10.848Z,14.72
2017-10-25T05:54:11.282Z,14.79
2017-10-25T05:55:11.713Z,14.77
2017-10-25T05:56:12.142Z,14.72
2017-10-25T05:57:12.572Z,14.79
2017-10-25T05:58:13.013Z,14.79
2017-10-25T05:59:13.437Z,14.77
2017-10-25T06:00:13.867Z,14.77
2017-10-25T06:01:14.302Z,14.82
2017-10-25T06:02:14.734Z,14.79
2017-10-25T06:03:15.159Z,14.85
2017-10-25T06:04:15.589Z,14.81
2017-10-25T06:05:16.041Z,14.82
2017-10-25T06:06:16.455Z,14.77
2017-10-25T06:07:16.890Z,14.68
2017-10-25T06:08:17.312Z,14.77
2017-10-25T06:09:17.748Z,14.73
2017-10-25T06:10:18.175Z,14.73
2017-10-25T06:11:18.614Z,14.72
2017-10-25T06:12:19.044Z,14.79
2017-10-25T06:13:19.470Z,14.73
2017-10-25T06:14:19.901Z,14.84
2017-10-25T06:15:20.339Z,14.86
2017-10-25T06:16:20.764Z,14.81
2017-10-25T06:17:21.197Z,14.88
2017-10-25T06:18:21.626Z,14.81
2017-10-25T06:19:22.061Z,14.81
2017-10-25T06:20:22.491Z,14.81
2017-10-25T06:21:22.921Z,14.82
2017-10-25T06:22:23.350Z,14.81
2017-10-25T06:23:23.793Z,14.88
2017-10-25T06:24:24.222Z,14.86
2017-10-25T06:25:24.643Z,14.88
2017-10-25T06:26:25.085Z,14.79
2017-10-25T06:27:25.512Z,14.85
2017-10-25T06:28:25.936Z,14.88
2017-10-25T06:29:26.380Z,14.89
2017-10-25T06:30:26.806Z,14.85
2017-10-25T06:31:27.236Z,14.96
2017-10-25T06:32:27.663Z,14.96
2017-10-25T06:33:28.105Z,14.79
2017-10-25T06:34:28.526Z,14.86
2017-10-25T06:35:28.960Z,14.88
2017-10-25T06:36:29.385Z,14.99
2017-10-25T06:37:29.825Z,14.82
2017-10-25T06:38:30.250Z,14.86
2017-10-25T06:39:30.678Z,14.96
2017-10-25T06:40:31.118Z,14.86
2017-10-25T06:43:05.645Z,15.04
2017-10-25T06:44:06.062Z,14.89
2017-10-25T06:46:02.628Z,14.99
2017-10-25T06:47:03.045Z,14.97
2017-10-25T06:48:03.476Z,15.00
2017-10-25T06:49:03.908Z,14.96
2017-10-25T06:50:04.336Z,14.96
2017-10-25T06:51:04.767Z,15.03
2017-10-25T06:52:05.198Z,14.97
2017-10-25T06:53:05.630Z,14.96
2017-10-25T06:54:06.060Z,15.00
2017-10-25T06:55:06.492Z,15.00
2017-10-25T06:56:06.922Z,15.00
2017-10-25T06:57:07.355Z,14.99
2017-10-25T06:58:07.811Z,14.96
2017-10-25T06:59:08.216Z,15.02
2017-10-25T07:00:08.647Z,15.03
2017-10-25T07:01:09.080Z,15.07
2017-10-25T07:02:09.512Z,15.00
2017-10-25T07:03:09.943Z,14.97
2017-10-25T07:04:10.379Z,14.96
2017-10-25T07:05:10.808Z,15.17
2017-10-25T07:06:11.234Z,15.07
2017-10-25T07:07:11.673Z,15.17
2017-10-25T07:08:12.098Z,15.18
2017-10-25T07:09:12.532Z,15.21
2017-10-25T07:10:12.963Z,15.22
2017-10-25T07:11:13.392Z,15.24
2017-10-25T07:12:13.825Z,15.21
2017-10-25T07:13:14.252Z,15.19
2017-10-25T07:14:14.701Z,15.19
2017-10-25T07:15:15.121Z,15.24
2017-10-25T07:16:15.546Z,15.22
2017-10-25T07:17:15.979Z,15.28
2017-10-25T07:18:16.439Z,15.19
2017-10-25T07:19:16.845Z,15.25
2017-10-25T07:20:17.277Z,15.33
2017-10-25T07:21:17.729Z,15.31
2017-10-25T07:22:18.144Z,15.25
2017-10-25T07:23:18.570Z,15.37
2017-10-25T07:24:19.001Z,15.39
2017-10-25T07:25:19.438Z,15.36
2017-10-25T07:26:19.949Z,15.40
2017-10-25T07:27:20.286Z,15.33
2017-10-25T07:28:20.730Z,15.42
2017-10-25T07:29:21.160Z,15.43
2017-10-25T07:30:21.594Z,15.36
2017-10-25T07:31:22.023Z,15.35
2017-10-25T07:32:22.459Z,15.39
2017-10-25T07:33:22.893Z,15.42
2017-10-25T07:34:23.327Z,15.61
2017-10-25T07:35:23.822Z,15.44
2017-10-25T07:36:24.188Z,15.61
2017-10-25T07:37:24.632Z,15.64
2017-10-25T07:38:25.051Z,15.67
2017-10-25T07:39:25.484Z,15.67
2017-10-25T07:40:25.916Z,15.72
2017-10-25T07:41:26.380Z,15.75
2017-10-25T07:42:26.783Z,15.80
2017-10-25T07:43:27.213Z,15.67
2017-10-25T07:44:27.643Z,15.77
2017-10-25T07:45:28.087Z,15.44
2017-10-25T07:46:28.512Z,15.52
2017-10-25T07:47:28.942Z,15.52
2017-10-25T07:48:29.379Z,15.68
2017-10-25T07:49:29.809Z,15.79
2017-10-25T07:50:30.242Z,15.68
2017-10-25T07:51:30.678Z,15.67
2017-10-25T07:52:31.159Z,15.67
2017-10-25T07:53:31.544Z,15.73
2017-10-25T07:54:31.978Z,15.68
2017-10-25T07:55:32.407Z,15.75
2017-10-25T07:56:32.839Z,15.82
2017-10-25T07:57:33.275Z,15.77
2017-10-25T07:58:33.708Z,15.88
2017-10-25T07:59:34.145Z,15.83
2017-10-25T08:00:34.573Z,15.82
2017-10-25T08:01:35.005Z,15.80
2017-10-25T08:02:35.441Z,15.79
2017-10-25T08:03:35.873Z,15.94
2017-10-25T08:04:36.310Z,15.88
2017-10-25T08:05:36.740Z,15.75
2017-10-25T08:06:37.172Z,15.75
2017-10-25T08:07:37.606Z,15.84
2017-10-25T08:08:38.040Z,15.79
2017-10-25T08:09:38.472Z,15.80
2017-10-25T08:10:38.913Z,15.80
2017-10-25T08:11:39.342Z,15.95
2017-10-25T08:12:39.770Z,16.13
2017-10-25T08:13:40.208Z,16.29
2017-10-25T08:14:40.638Z,16.28
2017-10-25T08:15:41.077Z,16.09
2017-10-25T08:16:41.510Z,16.28
2017-10-25T08:17:41.946Z,16.36
2017-10-25T08:18:42.378Z,16.41
2017-10-25T08:19:42.845Z,16.13
2017-10-25T08:20:43.247Z,16.23
2017-10-25T08:21:43.768Z,16.31
2017-10-25T08:22:44.136Z,16.29
2017-10-25T08:23:44.549Z,16.43
2017-10-25T08:24:44.979Z,16.36
2017-10-25T08:25:45.416Z,16.35
2017-10-25T08:26:45.849Z,16.20
2017-10-25T08:27:46.282Z,16.32
2017-10-25T08:28:46.722Z,16.28
2017-10-25T08:29:47.200Z,16.33
2017-10-25T08:30:47.607Z,16.36
2017-10-25T08:31:48.038Z,16.41
2017-10-25T08:32:48.456Z,16.49
2017-10-25T08:33:48.894Z,16.31
2017-10-25T08:34:50.949Z,16.16
2017-10-25T08:35:49.820Z,16.39
2017-10-25T08:36:50.196Z,16.41
2017-10-25T08:37:50.725Z,16.49
2017-10-25T08:38:51.126Z,16.39
2017-10-25T08:39:51.570Z,16.31
2017-10-25T08:40:51.924Z,16.23
2017-10-25T08:41:52.361Z,16.39
2017-10-25T08:42:52.796Z,16.49
2017-10-25T08:43:53.232Z,16.42
2017-10-25T08:44:53.667Z,16.50
2017-10-25T08:45:54.101Z,16.39
2017-10-25T08:46:54.539Z,16.64
2017-10-25T08:47:54.970Z,16.47
2017-10-25T08:48:55.410Z,16.61
2017-10-25T08:49:55.841Z,16.53
2017-10-25T08:50:57.922Z,16.68
2017-10-25T08:51:56.708Z,16.60
2017-10-25T08:52:57.143Z,16.50
2017-10-25T08:53:57.578Z,16.43
2017-10-25T08:54:58.013Z,16.66
2017-10-25T08:55:58.452Z,16.57
2017-10-25T08:56:58.886Z,16.69
2017-10-25T08:57:59.319Z,16.56
2017-10-25T08:58:59.754Z,16.61
2017-10-25T09:00:00.194Z,16.54
2017-10-25T09:01:00.627Z,16.81
2017-10-25T09:02:01.063Z,16.86
2017-10-25T09:03:01.496Z,16.66
2017-10-25T09:04:01.931Z,16.43
2017-10-25T09:05:02.371Z,16.53
2017-10-25T09:06:02.801Z,16.47
2017-10-25T09:07:03.235Z,16.56
2017-10-25T09:08:03.692Z,16.57
2017-10-25T09:09:04.104Z,16.66
2017-10-25T09:10:04.541Z,16.83
2017-10-25T09:11:04.981Z,16.97
2017-10-25T09:12:05.411Z,16.81
2017-10-25T09:13:05.847Z,16.66
2017-10-25T09:14:06.280Z,16.66
2017-10-25T09:15:06.718Z,16.66
2017-10-25T09:16:07.153Z,16.78
2017-10-25T09:17:07.586Z,16.89
2017-10-25T09:18:08.024Z,17.04
2017-10-25T09:19:08.456Z,17.02
2017-10-25T09:20:08.891Z,17.05
2017-10-25T09:21:09.324Z,17.24
2017-10-25T09:22:09.767Z,17.26
2017-10-25T09:23:10.196Z,17.05
2017-10-25T09:24:10.656Z,17.23
2017-10-25T09:25:11.072Z,17.41
2017-10-25T09:26:11.500Z,17.48
2017-10-25T09:27:11.936Z,17.64
2017-10-25T09:28:12.373Z,17.45
2017-10-25T09:29:12.814Z,17.57
2017-10-25T09:30:13.252Z,17.64
2017-10-25T09:31:13.682Z,17.67
2017-10-25T09:32:14.130Z,18.03
2017-10-25T09:33:14.563Z,18.16
2017-10-25T09:34:14.995Z,18.05
2017-10-25T09:35:15.425Z,18.13
2017-10-25T09:36:15.865Z,18.15
2017-10-25T09:37:16.304Z,18.13
2017-10-25T09:38:16.742Z,18.38
2017-10-25T09:39:17.177Z,18.71
2017-10-25T09:40:17.617Z,18.88
2017-10-25T09:41:18.052Z,18.93
2017-10-25T09:42:18.488Z,18.96
2017-10-25T09:43:18.930Z,18.89
2017-10-25T09:44:19.373Z,18.56
2017-10-25T09:45:19.807Z,18.78
2017-10-25T09:46:20.252Z,19.14
2017-10-25T09:47:20.686Z,19.34
2017-10-25T09:48:21.130Z,18.63
2017-10-25T09:49:21.571Z,18.43
2017-10-25T09:50:22.001Z,18.22
2017-10-25T09:51:22.442Z,18.58
2017-10-25T09:52:22.881Z,18.60
2017-10-25T09:53:23.321Z,18.84
2017-10-25T09:54:23.760Z,18.74
2017-10-25T09:55:24.206Z,19.09
2017-10-25T09:56:24.639Z,18.81
2017-10-25T09:57:25.080Z,18.49
2017-10-25T09:58:25.521Z,18.71
2017-10-25T09:59:25.961Z,18.80
2017-10-25T10:00:26.415Z,18.89
2017-10-25T10:01:26.846Z,18.90
2017-10-25T10:02:27.281Z,18.80
2017-10-25T10:03:27.717Z,18.88
2017-10-25T10:04:28.158Z,18.31
2017-10-25T10:05:28.600Z,18.50
2017-10-25T10:06:29.037Z,18.68
2017-10-25T10:07:29.488Z,18.60
2017-10-25T10:08:29.915Z,18.34
2017-10-25T10:09:30.352Z,18.22
2017-10-25T10:10:30.796Z,18.43
2017-10-25T10:11:31.230Z,18.31
2017-10-25T10:12:31.674Z,17.98
2017-10-25T10:13:32.106Z,18.22
2017-10-25T10:14:32.547Z,18.37
2017-10-25T10:15:33.029Z,18.26
2017-10-25T10:16:33.425Z,18.04
2017-10-25T10:17:33.859Z,17.80
2017-10-25T10:18:34.300Z,17.74
2017-10-25T10:19:34.741Z,17.80
2017-10-25T10:20:35.173Z,17.76
2017-10-25T10:21:35.612Z,17.74
2017-10-25T10:22:36.056Z,18.07
2017-10-25T10:23:36.485Z,17.82
2017-10-25T10:24:36.922Z,18.03
2017-10-25T10:25:37.361Z,17.59
2017-10-25T10:26:37.795Z,17.39
2017-10-25T10:27:38.233Z,17.46
2017-10-25T10:28:38.672Z,17.72
2017-10-25T10:29:39.106Z,17.64
2017-10-25T10:30:39.544Z,17.80
2017-10-25T10:31:39.980Z,17.83
2017-10-25T10:32:40.417Z,17.83
2017-10-25T10:33:40.852Z,17.79
2017-10-25T10:34:41.289Z,17.83
2017-10-25T10:35:41.727Z,18.04
2017-10-25T10:36:42.160Z,17.92
2017-10-25T10:37:42.598Z,17.83
2017-10-25T10:38:43.043Z,17.86
2017-10-25T10:39:43.472Z,18.03
2017-10-25T10:40:43.917Z,18.11
2017-10-25T10:41:44.344Z,18.22
2017-10-25T10:42:44.781Z,18.22
2017-10-25T10:43:45.217Z,18.26
2017-10-25T10:44:45.654Z,18.04
2017-10-25T10:45:46.086Z,18.07
2017-10-25T10:46:46.525Z,18.08
2017-10-25T10:47:46.965Z,18.22
2017-10-25T10:48:47.400Z,18.07
2017-10-25T10:49:47.832Z,18.05
2017-10-25T10:50:48.270Z,18.10
2017-10-25T10:51:48.710Z,18.07
2017-10-25T10:52:49.148Z,18.18
2017-10-25T10:53:49.629Z,18.18
2017-10-25T10:54:50.046Z,18.00
2017-10-25T10:55:50.454Z,18.11
2017-10-25T10:56:50.899Z,17.97
2017-10-25T10:57:51.327Z,18.16
2017-10-25T10:58:51.764Z,18.00
2017-10-25T10:59:52.199Z,18.18
2017-10-25T11:00:52.641Z,18.08
2017-10-25T11:01:53.073Z,18.25
2017-10-25T11:02:53.528Z,18.34
2017-10-25T11:03:53.955Z,18.05
2017-10-25T11:04:54.384Z,18.04
2017-10-25T11:05:54.823Z,18.00
2017-10-25T11:06:55.262Z,17.85
2017-10-25T11:07:55.695Z,18.04
2017-10-25T11:08:56.133Z,17.97
2017-10-25T11:09:56.575Z,18.29
2017-10-25T11:10:57.007Z,18.33
2017-10-25T11:11:57.449Z,18.59
2017-10-25T11:12:57.880Z,18.71
2017-10-25T11:13:58.317Z,19.26
2017-10-25T11:14:58.756Z,19.81
2017-10-25T11:15:59.195Z,19.91
2017-10-25T11:16:59.633Z,19.84
2017-10-25T11:18:00.078Z,20.14
2017-10-25T11:19:00.520Z,19.94
2017-10-25T11:20:00.953Z,20.02
2017-10-25T11:21:01.395Z,18.92
2017-10-25T11:22:01.834Z,19.30
2017-10-25T11:23:02.280Z,19.33
2017-10-25T11:24:02.716Z,19.04
2017-10-25T11:25:03.160Z,19.27
2017-10-25T11:26:03.596Z,19.11
2017-10-25T11:27:04.039Z,19.04
2017-10-25T11:28:04.495Z,18.96
2017-10-25T11:29:04.928Z,19.11
2017-10-25T11:30:05.358Z,19.29
2017-10-25T11:31:05.806Z,19.02
2017-10-25T11:32:06.239Z,19.04
2017-10-25T11:33:06.695Z,19.11
2017-10-25T11:34:07.119Z,19.16
2017-10-25T11:35:07.563Z,18.92
2017-10-25T11:36:08.515Z,19.04
2017-10-25T11:37:08.449Z,19.34
2017-10-25T11:38:08.887Z,19.12
2017-10-25T11:39:09.331Z,19.27
2017-10-25T11:40:09.755Z,19.26
2017-10-25T11:41:10.194Z,19.27
2017-10-25T11:42:10.633Z,19.22
2017-10-25T11:43:11.071Z,19.18
2017-10-25T11:44:11.511Z,19.22
2017-10-25T11:45:11.949Z,19.15
2017-10-25T11:46:12.411Z,18.92
2017-10-25T11:47:12.828Z,18.77
2017-10-25T11:48:13.266Z,18.88
2017-10-25T11:49:13.705Z,18.58
2017-10-25T11:50:14.144Z,18.62
2017-10-25T11:51:14.581Z,18.59
2017-10-25T11:52:15.019Z,18.83
2017-10-25T11:53:15.462Z,18.88
2017-10-25T11:54:15.895Z,18.90
2017-10-25T11:55:16.334Z,18.92
2017-10-25T11:56:16.800Z,19.04
2017-10-25T11:57:17.212Z,19.15
2017-10-25T11:58:17.649Z,19.07
2017-10-25T11:59:40.061Z,18.88
2017-10-25T12:00:18.540Z,18.88
2017-10-25T12:01:18.964Z,19.04
2017-10-25T12:02:19.397Z,19.04
2017-10-25T12:03:19.845Z,19.14
2017-10-25T12:04:20.275Z,19.22
2017-10-25T12:05:20.713Z,19.18
2017-10-25T12:06:21.152Z,18.96
2017-10-25T12:07:21.585Z,19.07
2017-10-25T12:08:22.025Z,18.73
2017-10-25T12:09:22.460Z,18.77
2017-10-25T12:10:22.898Z,18.90
2017-10-25T12:11:23.335Z,19.07
2017-10-25T12:12:23.773Z,19.02
2017-10-25T12:13:24.214Z,19.02
2017-10-25T12:14:24.654Z,18.90
2017-10-25T12:15:25.086Z,19.00
2017-10-25T12:16:25.523Z,18.92
2017-10-25T12:17:25.988Z,19.07
2017-10-25T12:18:26.398Z,19.11
2017-10-25T12:19:28.522Z,18.99
2017-10-25T12:20:27.284Z,18.96
2017-10-25T12:21:27.707Z,18.92
2017-10-25T12:22:28.149Z,18.99
2017-10-25T12:23:28.585Z,19.07
2017-10-25T12:24:29.023Z,19.24
2017-10-25T12:25:29.461Z,19.22
2017-10-25T12:26:29.900Z,19.14
2017-10-25T12:27:30.334Z,19.26
2017-10-25T12:28:30.770Z,19.21
2017-10-25T12:29:31.211Z,19.18
2017-10-25T12:30:31.646Z,19.24
2017-10-25T12:31:32.084Z,19.37
2017-10-25T12:32:32.532Z,19.51
2017-10-25T12:33:32.958Z,19.49
2017-10-25T12:34:33.400Z,19.47
2017-10-25T12:35:33.835Z,19.45
2017-10-25T12:36:34.274Z,19.52
2017-10-25T12:37:34.716Z,19.49
2017-10-25T12:38:35.147Z,19.49
2017-10-25T12:39:35.586Z,19.47
2017-10-25T12:40:36.023Z,19.54
2017-10-25T12:41:36.471Z,19.44
2017-10-25T12:42:36.900Z,19.69
2017-10-25T12:43:37.341Z,19.59
2017-10-25T12:44:37.778Z,19.66
2017-10-25T12:45:38.213Z,19.71
2017-10-25T12:46:38.652Z,19.55
2017-10-25T12:47:39.089Z,19.63
2017-10-25T12:48:39.530Z,19.62
2017-10-25T12:49:39.977Z,19.69
2017-10-25T12:50:40.400Z,19.70
2017-10-25T12:51:40.838Z,19.70
2017-10-25T12:52:41.276Z,19.82
2017-10-25T12:53:41.731Z,19.51
2017-10-25T12:54:42.170Z,19.47
2017-10-25T12:55:42.591Z,19.62
2017-10-25T12:56:43.025Z,19.85
2017-10-25T12:57:43.462Z,19.91
2017-10-25T12:58:43.902Z,20.02
2017-10-25T12:59:44.342Z,20.04
2017-10-25T13:00:44.782Z,19.79
2017-10-25T13:01:45.227Z,19.70
2017-10-25T13:02:48.544Z,19.14
2017-10-25T13:03:46.095Z,19.21
2017-10-25T13:04:46.532Z,19.36
2017-10-25T13:05:46.967Z,19.27
2017-10-25T13:06:47.405Z,19.31
2017-10-25T13:07:47.867Z,19.37
2017-10-25T13:08:48.280Z,19.30
2017-10-25T13:09:48.740Z,19.21
2017-10-25T13:10:49.187Z,19.27
2017-10-25T13:11:49.627Z,19.30
2017-10-25T13:12:50.031Z,19.27
2017-10-25T13:13:50.469Z,19.26